createdAt,value
2023-02-04T00:00:29.182Z,15.63
2023-02-04T00:02:58.733Z,11.93
2023-02-04T00:05:26.705Z,10.63
2023-02-04T00:07:54.600Z,14.77
2023-02-04T00:10:22.462Z,14.60
2023-02-04T00:12:50.377Z,11.80
2023-02-04T00:15:18.303Z,16.67
2023-02-04T00:17:46.210Z,14.67
2023-02-04T00:20:15.568Z,12.77
2023-02-04T00:22:43.491Z,13.13
2023-02-04T00:25:11.508Z,15.07
2023-02-04T00:27:39.752Z,14.00
2023-02-04T00:30:08.974Z,13.03
2023-02-04T00:32:36.933Z,10.03
2023-02-04T00:35:05.560Z,12.90
2023-02-04T00:37:34.999Z,14.60
2023-02-04T00:40:03.196Z,17.20
2023-02-04T00:42:31.168Z,12.27
2023-02-04T00:44:59.640Z,12.60
2023-02-04T00:47:27.550Z,12.27
2023-02-04T00:49:57.557Z,11.03
2023-02-04T00:52:25.484Z,11.53
2023-02-04T00:54:54.737Z,14.03
2023-02-04T00:57:23.423Z,15.67
2023-02-04T00:59:51.354Z,12.50
2023-02-04T01:02:19.296Z,12.87
2023-02-04T01:04:47.181Z,11.77
2023-02-04T01:07:15.100Z,9.23
2023-02-04T01:09:42.993Z,10.57
2023-02-04T01:12:12.348Z,13.13
2023-02-04T01:14:40.339Z,12.53
2023-02-04T01:17:08.224Z,13.47
2023-02-04T01:19:36.151Z,12.47
2023-02-04T01:22:04.028Z,13.03
2023-02-04T01:24:31.972Z,11.47
2023-02-04T01:27:21.512Z,18.53
2023-02-04T01:29:49.456Z,13.57
2023-02-04T01:32:18.285Z,11.30
2023-02-04T01:34:46.738Z,11.97
2023-02-04T01:37:14.737Z,12.97
2023-02-04T01:39:42.929Z,14.60
2023-02-04T01:42:11.235Z,10.10
2023-02-04T01:44:40.829Z,11.40
2023-02-04T01:47:08.834Z,12.53
2023-02-04T01:49:36.784Z,14.27
2023-02-04T01:52:05.224Z,12.93
2023-02-04T01:54:33.704Z,15.13
2023-02-04T01:57:01.977Z,15.07
2023-02-04T01:59:29.996Z,15.07
2023-02-04T02:02:02.577Z,13.20
2023-02-04T02:04:33.191Z,12.00
2023-02-04T02:07:06.420Z,11.83
2023-02-04T02:09:35.136Z,10.93
2023-02-04T02:12:04.231Z,17.67
2023-02-04T02:14:32.969Z,15.00
2023-02-04T02:17:02.310Z,14.23
2023-02-04T02:19:34.569Z,14.43
2023-02-04T02:22:06.693Z,18.37
2023-02-04T02:24:36.704Z,10.77
2023-02-04T02:27:08.293Z,11.00
2023-02-04T02:29:36.694Z,17.07
2023-02-04T02:32:06.156Z,13.33
2023-02-04T02:34:35.286Z,11.07
2023-02-04T02:37:04.332Z,15.30
2023-02-04T02:39:32.607Z,12.20
2023-02-04T02:42:03.026Z,15.10
2023-02-04T02:44:31.492Z,19.70
2023-02-04T02:46:59.936Z,14.43
2023-02-04T02:49:31.276Z,16.13
2023-02-04T02:51:59.183Z,20.27
2023-02-04T02:54:29.953Z,13.67
2023-02-04T02:57:02.557Z,18.77
2023-02-04T02:59:30.710Z,15.47
2023-02-04T03:02:01.553Z,14.30
2023-02-04T03:04:35.618Z,18.03
2023-02-04T03:07:04.736Z,19.13
2023-02-04T03:09:34.082Z,15.63
2023-02-04T03:12:05.221Z,16.87
2023-02-04T03:14:34.262Z,19.17
2023-02-04T03:17:05.461Z,11.07
2023-02-04T03:19:36.174Z,10.77
2023-02-04T03:22:06.375Z,17.40
2023-02-04T03:24:34.642Z,17.40
2023-02-04T03:27:05.553Z,12.67
2023-02-04T03:29:35.475Z,13.07
2023-02-04T03:32:06.421Z,16.20
2023-02-04T03:34:34.372Z,16.03
2023-02-04T03:37:02.297Z,13.43
2023-02-04T03:39:30.224Z,13.03
2023-02-04T03:41:58.643Z,8.10
2023-02-04T03:44:27.880Z,13.00
2023-02-04T03:46:56.520Z,17.17
2023-02-04T03:49:24.751Z,12.57
2023-02-04T03:51:52.881Z,13.30
2023-02-04T03:54:20.846Z,13.93
2023-02-04T03:56:48.833Z,13.20
2023-02-04T03:59:16.827Z,10.80
2023-02-04T04:01:46.166Z,16.20
2023-02-04T04:04:14.193Z,14.63
2023-02-04T04:06:42.062Z,13.90
2023-02-04T04:09:10.097Z,12.97
2023-02-04T04:11:37.993Z,18.53
2023-02-04T04:14:05.927Z,16.70
2023-02-04T04:16:33.915Z,12.77
2023-02-04T04:19:03.156Z,18.17
2023-02-04T04:21:31.140Z,13.33
2023-02-04T04:23:59.291Z,11.70
2023-02-04T04:26:27.226Z,14.10
2023-02-04T04:28:55.135Z,8.77
2023-02-04T04:31:23.136Z,8.90
2023-02-04T04:33:51.054Z,11.10
2023-02-04T04:36:20.265Z,11.80
2023-02-04T04:38:48.119Z,15.03
2023-02-04T04:41:15.992Z,12.03
2023-02-04T04:43:43.935Z,10.97
2023-02-04T04:46:11.817Z,19.33
2023-02-04T04:48:40.180Z,11.93
2023-02-04T04:51:08.170Z,22.03
2023-02-04T04:53:37.490Z,27.23
2023-02-04T04:56:05.533Z,23.60
2023-02-04T04:58:33.534Z,30.63
2023-02-04T05:01:01.500Z,24.03
2023-02-04T05:03:29.498Z,24.83
2023-02-04T05:05:57.367Z,23.27
2023-02-04T05:08:25.322Z,22.37
2023-02-04T05:10:54.584Z,18.70
2023-02-04T05:13:24.077Z,21.90
2023-02-04T05:15:52.080Z,18.17
2023-02-04T05:18:20.005Z,19.67
2023-02-04T05:20:48.028Z,18.03
2023-02-04T05:23:17.091Z,25.47
2023-02-04T05:25:44.987Z,16.03
2023-02-04T05:28:14.247Z,16.20
2023-02-04T05:30:42.315Z,15.23
2023-02-04T05:33:10.233Z,16.73
2023-02-04T05:35:38.098Z,19.40
2023-02-04T05:38:06.034Z,20.23
2023-02-04T05:40:34.298Z,14.83
2023-02-04T05:43:02.345Z,23.03
2023-02-04T05:45:31.805Z,19.67
2023-02-04T05:47:59.984Z,18.83
2023-02-04T05:50:27.970Z,23.07
2023-02-04T05:53:09.313Z,20.30
2023-02-04T05:55:37.214Z,29.57
2023-02-04T05:58:05.125Z,23.80
2023-02-04T06:00:34.495Z,18.80
2023-02-04T06:03:02.731Z,21.80
2023-02-04T06:05:30.715Z,22.57
2023-02-04T06:07:58.645Z,19.60
2023-02-04T06:10:26.675Z,30.87
2023-02-04T06:12:54.591Z,22.73
2023-02-04T06:15:22.535Z,20.37
2023-02-04T06:17:53.200Z,18.77
2023-02-04T06:20:21.356Z,21.83
2023-02-04T06:22:51.536Z,19.80
2023-02-04T06:25:19.718Z,26.17
2023-02-04T06:27:47.927Z,24.07
2023-02-04T06:30:16.497Z,24.80
2023-02-04T06:32:44.509Z,27.00
2023-02-04T06:35:15.179Z,20.93
2023-02-04T06:37:43.215Z,30.47
2023-02-04T06:40:12.741Z,23.03
2023-02-04T06:42:40.669Z,24.63
2023-02-04T06:45:09.139Z,20.80
2023-02-04T06:47:37.061Z,22.47
2023-02-04T06:50:05.265Z,20.43
2023-02-04T06:52:34.541Z,22.23
2023-02-04T06:55:02.487Z,25.40
2023-02-04T06:57:30.686Z,26.40
2023-02-04T06:59:58.566Z,22.07
2023-02-04T07:02:26.461Z,24.93
2023-02-04T07:04:54.321Z,23.27
2023-02-04T07:07:22.273Z,21.53
2023-02-04T07:09:51.561Z,20.73
2023-02-04T07:12:19.826Z,26.60
2023-02-04T07:14:47.781Z,23.87
2023-02-04T07:17:15.655Z,22.83
2023-02-04T07:19:43.552Z,16.17
2023-02-04T07:22:11.487Z,26.17
2023-02-04T07:24:39.423Z,18.93
2023-02-04T07:27:08.624Z,34.13
2023-02-04T07:29:36.568Z,23.03
2023-02-04T07:32:04.574Z,21.40
2023-02-04T07:34:32.544Z,21.20
2023-02-04T07:37:00.490Z,19.93
2023-02-04T07:39:28.392Z,36.40
2023-02-04T07:41:56.298Z,27.80
2023-02-04T07:44:32.938Z,25.67
2023-02-04T07:47:00.774Z,26.43
2023-02-04T07:49:28.891Z,28.80
2023-02-04T07:51:57.831Z,30.43
2023-02-04T07:54:25.806Z,22.67
2023-02-04T07:56:53.693Z,30.43
2023-02-04T07:59:21.639Z,22.00
2023-02-04T08:01:50.996Z,28.83
2023-02-04T08:04:18.896Z,29.60
2023-02-04T08:06:46.785Z,29.37
2023-02-04T08:09:14.692Z,32.10
2023-02-04T08:11:42.581Z,32.73
2023-02-04T08:14:10.528Z,28.90
2023-02-04T08:16:38.384Z,33.63
2023-02-04T08:19:07.590Z,34.23
2023-02-04T08:21:36.359Z,26.63
2023-02-04T08:24:04.319Z,29.40
2023-02-04T08:26:32.251Z,20.90
2023-02-04T08:29:00.176Z,28.27
2023-02-04T08:31:28.139Z,24.77
2023-02-04T08:33:56.067Z,28.77
2023-02-04T08:36:25.358Z,31.73
2023-02-04T08:38:53.278Z,23.60
2023-02-04T08:41:21.182Z,31.53
2023-02-04T08:43:49.048Z,25.40
2023-02-04T08:46:17.070Z,28.03
2023-02-04T08:48:44.996Z,30.87
2023-02-04T08:51:12.938Z,40.30
2023-02-04T08:53:42.258Z,46.73
2023-02-04T08:56:10.536Z,48.67
2023-02-04T08:58:39.638Z,43.03
2023-02-04T09:01:08.128Z,37.30
2023-02-04T09:03:36.056Z,36.20
2023-02-04T09:06:04.090Z,39.90
2023-02-04T09:08:32.061Z,36.07
2023-02-04T09:11:01.737Z,37.97
2023-02-04T09:13:29.689Z,26.43
2023-02-04T09:15:57.737Z,36.40
2023-02-04T09:18:26.152Z,40.20
2023-02-04T09:20:54.250Z,30.03
2023-02-04T09:23:23.049Z,27.53
2023-02-04T09:25:51.008Z,34.40
2023-02-04T09:28:20.524Z,37.37
2023-02-04T09:30:48.617Z,43.37
2023-02-04T09:33:17.781Z,30.10
2023-02-04T09:35:45.913Z,40.20
2023-02-04T09:38:13.836Z,36.27
2023-02-04T09:40:45.347Z,43.27
2023-02-04T09:43:18.848Z,41.87
2023-02-04T09:45:49.839Z,44.00
2023-02-04T09:48:18.045Z,30.57
2023-02-04T09:50:46.465Z,31.80
2023-02-04T09:53:17.454Z,44.17
2023-02-04T09:55:47.519Z,34.33
2023-02-04T09:58:17.424Z,31.77
2023-02-04T10:00:46.713Z,42.90
2023-02-04T10:03:18.376Z,39.40
2023-02-04T10:05:47.550Z,38.00
2023-02-04T10:08:17.170Z,36.60
2023-02-04T10:10:46.545Z,45.00
2023-02-04T10:13:19.325Z,39.70
2023-02-04T10:15:48.445Z,40.43
2023-02-04T10:18:23.160Z,38.67
2023-02-04T10:20:51.339Z,39.07
2023-02-04T10:23:19.357Z,42.27
2023-02-04T10:25:47.281Z,36.93
2023-02-04T10:28:15.386Z,37.53
2023-02-04T10:30:47.260Z,34.83
2023-02-04T10:33:24.756Z,33.53
2023-02-04T10:35:55.040Z,34.87
2023-02-04T10:38:23.621Z,30.43
2023-02-04T10:41:01.857Z,36.60
2023-02-04T10:43:29.741Z,41.87
2023-02-04T10:45:59.796Z,34.47
2023-02-04T10:48:30.311Z,40.07
2023-02-04T10:50:59.236Z,34.73
2023-02-04T10:53:45.244Z,39.87
2023-02-04T10:56:17.763Z,30.17
2023-02-04T10:58:45.899Z,33.27
2023-02-04T11:01:15.822Z,29.30
2023-02-04T11:03:48.043Z,35.43
2023-02-04T11:06:21.732Z,28.33
2023-02-04T11:08:51.545Z,30.07
2023-02-04T11:11:21.753Z,32.87
2023-02-04T11:14:00.799Z,34.87
2023-02-04T11:16:32.742Z,29.87
2023-02-04T11:19:04.629Z,30.70
2023-02-04T11:21:43.958Z,28.07
2023-02-04T11:24:26.864Z,29.60
2023-02-04T11:27:08.007Z,28.73
2023-02-04T11:29:39.004Z,31.27
2023-02-04T11:32:14.529Z,32.47
2023-02-04T11:34:51.199Z,28.03
2023-02-04T11:37:38.011Z,30.97
2023-02-04T11:40:27.291Z,29.33
2023-02-04T11:43:03.491Z,35.83
2023-02-04T11:45:34.873Z,30.17
2023-02-04T11:48:05.322Z,34.33
2023-02-04T11:50:38.278Z,27.23
2023-02-04T11:53:06.725Z,37.17
2023-02-04T11:55:37.752Z,24.40
2023-02-04T11:58:07.273Z,25.63
2023-02-04T12:00:35.250Z,23.70
2023-02-04T12:03:20.463Z,27.77
2023-02-04T12:05:49.913Z,27.43
2023-02-04T12:08:27.886Z,23.13
2023-02-04T12:11:07.398Z,24.23
2023-02-04T12:13:46.681Z,27.23
2023-02-04T12:16:14.660Z,24.37
2023-02-04T12:18:42.649Z,22.17
2023-02-04T12:21:12.074Z,26.50
2023-02-04T12:23:39.971Z,23.13
2023-02-04T12:26:08.630Z,25.23
2023-02-04T12:28:36.651Z,25.17
2023-02-04T12:31:04.942Z,20.10
2023-02-04T12:33:33.273Z,24.33
2023-02-04T12:36:01.140Z,22.80
2023-02-04T12:38:30.409Z,18.67
2023-02-04T12:40:58.293Z,21.67
2023-02-04T12:43:28.360Z,20.10
2023-02-04T12:45:56.624Z,20.83
2023-02-04T12:48:26.024Z,21.17
2023-02-04T12:50:54.098Z,22.37
2023-02-04T12:53:22.270Z,23.43
2023-02-04T12:55:51.543Z,17.27
2023-02-04T12:58:19.401Z,24.07
2023-02-04T13:00:47.375Z,18.47
2023-02-04T13:03:15.324Z,27.73
2023-02-04T13:05:43.267Z,22.97
2023-02-04T13:08:11.151Z,21.97
2023-02-04T13:10:39.043Z,23.83
2023-02-04T13:13:09.270Z,19.30
2023-02-04T13:15:37.212Z,20.43
2023-02-04T13:18:05.407Z,22.63
2023-02-04T13:20:33.378Z,19.40
2023-02-04T13:23:01.377Z,22.17
2023-02-04T13:25:29.428Z,22.27
2023-02-04T13:27:57.472Z,23.30
2023-02-04T13:30:26.808Z,21.50
2023-02-04T13:32:54.753Z,19.60
2023-02-04T13:35:22.663Z,21.50
2023-02-04T13:37:50.532Z,21.33
2023-02-04T13:40:18.660Z,22.23
2023-02-04T13:42:46.558Z,17.60
2023-02-04T13:45:16.249Z,24.97
2023-02-04T13:47:45.533Z,28.33
2023-02-04T13:50:13.520Z,23.70
2023-02-04T13:52:41.372Z,23.93
2023-02-04T13:55:10.009Z,27.73
2023-02-04T13:57:38.265Z,18.57
2023-02-04T14:00:07.832Z,19.90
2023-02-04T14:02:42.928Z,18.70
2023-02-04T14:05:12.421Z,22.33
2023-02-04T14:07:40.451Z,21.60
2023-02-04T14:10:09.168Z,23.13
2023-02-04T14:12:37.218Z,27.80
2023-02-04T14:15:05.683Z,17.63
2023-02-04T14:17:33.692Z,19.73
2023-02-04T14:20:01.704Z,25.50
2023-02-04T14:22:31.015Z,22.83
2023-02-04T14:24:58.950Z,16.93
2023-02-04T14:27:27.248Z,19.40
2023-02-04T14:29:55.249Z,19.43
2023-02-04T14:32:23.307Z,21.27
2023-02-04T14:34:51.237Z,21.70
2023-02-04T14:37:19.155Z,19.03
2023-02-04T14:39:48.419Z,19.77
2023-02-04T14:42:16.357Z,16.47
2023-02-04T14:44:44.225Z,26.03
2023-02-04T14:47:12.167Z,18.37
2023-02-04T14:49:40.057Z,21.63
2023-02-04T14:52:10.214Z,19.43
2023-02-04T14:54:38.472Z,18.07
2023-02-04T14:57:11.205Z,24.23
2023-02-04T14:59:39.337Z,20.30
2023-02-04T15:02:07.586Z,22.50
2023-02-04T15:04:35.566Z,21.10
2023-02-04T15:07:03.569Z,20.67
2023-02-04T15:09:31.553Z,25.77
2023-02-04T15:11:59.546Z,20.53
2023-02-04T15:14:28.904Z,23.80
2023-02-04T15:16:56.943Z,26.77
2023-02-04T15:19:25.120Z,25.23
2023-02-04T15:21:53.925Z,26.27
2023-02-04T15:24:22.764Z,20.90
2023-02-04T15:26:51.611Z,25.47
2023-02-04T15:29:19.573Z,27.70
2023-02-04T15:31:49.024Z,25.83
2023-02-04T15:34:16.945Z,25.67
2023-02-04T15:36:44.877Z,25.17
2023-02-04T15:39:12.820Z,25.43
2023-02-04T15:41:40.837Z,26.60
2023-02-04T15:44:08.861Z,22.90
2023-02-04T15:46:36.847Z,24.80
2023-02-04T15:49:06.097Z,21.07
2023-02-04T15:51:34.174Z,22.13
2023-02-04T15:54:02.064Z,25.97
2023-02-04T15:56:29.971Z,27.37
2023-02-04T15:58:57.863Z,23.33
2023-02-04T16:01:25.809Z,18.80
2023-02-04T16:03:56.402Z,25.63
2023-02-04T16:06:26.125Z,20.90
2023-02-04T16:08:54.188Z,23.50
2023-02-04T16:11:22.145Z,22.13
2023-02-04T16:13:50.101Z,25.70
2023-02-04T16:16:18.097Z,24.70
2023-02-04T16:18:45.972Z,25.27
2023-02-04T16:21:13.903Z,18.97
2023-02-04T16:23:43.631Z,19.90
2023-02-04T16:26:11.641Z,29.20
2023-02-04T16:28:39.568Z,25.07
2023-02-04T16:31:09.557Z,24.67
2023-02-04T16:33:37.659Z,23.93
2023-02-04T16:36:08.261Z,25.73
2023-02-04T16:38:38.786Z,20.47
2023-02-04T16:41:08.698Z,21.13
2023-02-04T16:43:37.375Z,23.20
2023-02-04T16:46:05.741Z,22.90
2023-02-04T16:48:33.960Z,22.67
2023-02-04T16:51:01.933Z,20.70
2023-02-04T16:53:29.824Z,22.03
2023-02-04T16:55:57.859Z,17.27
2023-02-04T16:58:27.168Z,24.03
2023-02-04T17:00:56.726Z,24.97
2023-02-04T17:03:24.613Z,21.43
2023-02-04T17:05:52.525Z,21.57
2023-02-04T17:08:20.379Z,21.87
2023-02-04T17:11:05.918Z,23.27
2023-02-04T17:13:35.335Z,24.17
2023-02-04T17:16:03.280Z,20.87
2023-02-04T17:18:32.437Z,19.97
2023-02-04T17:21:01.234Z,19.47
2023-02-04T17:23:29.706Z,22.23
2023-02-04T17:25:57.616Z,18.83
2023-02-04T17:28:26.189Z,21.87
2023-02-04T17:30:55.893Z,17.53
2023-02-04T17:33:23.959Z,20.87
2023-02-04T17:35:51.874Z,21.80
2023-02-04T17:38:19.773Z,21.57
2023-02-04T17:40:47.709Z,20.70
2023-02-04T17:43:15.596Z,25.03
2023-02-04T17:45:43.525Z,27.00
2023-02-04T17:48:12.910Z,24.70
2023-02-04T17:50:40.841Z,22.03
2023-02-04T17:53:09.641Z,21.73
2023-02-04T17:55:39.721Z,22.93
2023-02-04T17:58:14.953Z,22.70
2023-02-04T18:00:45.115Z,18.23
2023-02-04T18:03:16.648Z,24.27
2023-02-04T18:05:46.823Z,22.53
2023-02-04T18:08:17.019Z,24.00
2023-02-04T18:10:46.617Z,19.23
2023-02-04T18:13:17.328Z,23.37
2023-02-04T18:15:47.197Z,24.90
2023-02-04T18:18:27.894Z,24.87
2023-02-04T18:21:01.032Z,23.27
2023-02-04T18:23:30.978Z,19.97
2023-02-04T18:26:06.065Z,25.00
2023-02-04T18:28:36.647Z,21.47
2023-02-04T18:31:18.191Z,24.07
2023-02-04T18:33:47.872Z,22.27
2023-02-04T18:36:19.848Z,21.97
2023-02-04T18:38:47.972Z,25.80
2023-02-04T18:41:31.274Z,20.47
2023-02-04T18:44:03.120Z,24.13
2023-02-04T18:46:33.965Z,28.90
2023-02-04T18:49:21.262Z,23.17
2023-02-04T18:51:49.226Z,24.70
2023-02-04T18:54:25.994Z,25.03
2023-02-04T18:56:56.459Z,27.87
2023-02-04T18:59:28.496Z,25.67
2023-02-04T19:01:56.563Z,35.27
2023-02-04T19:04:26.958Z,32.00
2023-02-04T19:06:56.572Z,34.00
2023-02-04T19:09:26.096Z,29.97
2023-02-04T19:11:55.929Z,36.13
2023-02-04T19:14:30.062Z,31.40
2023-02-04T19:17:16.846Z,30.43
2023-02-04T19:19:53.231Z,38.87
2023-02-04T19:22:27.475Z,39.97
2023-02-04T19:24:59.463Z,28.43
2023-02-04T19:27:30.826Z,27.40
2023-02-04T19:30:00.574Z,31.23
2023-02-04T19:32:37.535Z,24.30
2023-02-04T19:35:19.262Z,25.33
2023-02-04T19:37:54.785Z,25.87
2023-02-04T19:40:30.915Z,22.67
2023-02-04T19:43:15.029Z,20.40
2023-02-04T19:45:43.512Z,29.80
2023-02-04T19:48:22.539Z,33.50
2023-02-04T19:50:53.977Z,23.17
2023-02-04T19:53:23.405Z,25.53
2023-02-04T19:55:52.787Z,24.13
2023-02-04T19:58:22.837Z,38.73
2023-02-04T20:00:57.181Z,30.03
2023-02-04T20:03:41.468Z,30.23
2023-02-04T20:06:27.231Z,26.60
2023-02-04T20:09:03.485Z,24.90
2023-02-04T20:11:58.383Z,21.30
2023-02-04T20:14:41.518Z,21.90
2023-02-04T20:17:19.525Z,29.97
2023-02-04T20:19:48.684Z,22.87
2023-02-04T20:22:45.973Z,24.83
2023-02-04T20:25:39.415Z,21.50
2023-02-04T20:28:29.991Z,17.03
2023-02-04T20:31:01.233Z,23.27
2023-02-04T20:33:50.424Z,30.73
2023-02-04T20:36:41.054Z,19.97
2023-02-04T20:39:35.573Z,39.47
2023-02-04T20:42:27.287Z,20.33
2023-02-04T20:44:56.179Z,26.93
2023-02-04T20:47:26.439Z,20.37
2023-02-04T20:49:56.235Z,24.43
2023-02-04T20:53:16.275Z,24.43
2023-02-04T20:55:49.713Z,26.03
2023-02-04T20:58:20.741Z,24.70
2023-02-04T21:00:52.115Z,30.27
2023-02-04T21:03:23.537Z,33.10
2023-02-04T21:05:52.489Z,27.13
2023-02-04T21:08:30.500Z,25.50
2023-02-04T21:10:59.826Z,25.20
2023-02-04T21:13:27.765Z,23.93
2023-02-04T21:15:56.590Z,24.83
2023-02-04T21:18:24.831Z,20.27
2023-02-04T21:20:52.737Z,30.37
2023-02-04T21:23:20.705Z,27.17
2023-02-04T21:25:48.572Z,23.10
2023-02-04T21:28:17.863Z,36.63
2023-02-04T21:30:45.974Z,33.67
2023-02-04T21:33:16.631Z,27.97
2023-02-04T21:35:44.902Z,25.97
2023-02-04T21:38:12.808Z,29.80
2023-02-04T21:40:40.829Z,41.77
2023-02-04T21:43:08.719Z,29.23
2023-02-04T21:45:39.685Z,28.47
2023-02-04T21:48:08.483Z,37.83
2023-02-04T21:50:38.282Z,41.93
2023-02-04T21:53:07.724Z,49.07
2023-02-04T21:55:36.323Z,41.20
2023-02-04T21:58:04.668Z,24.97
2023-02-04T22:00:32.993Z,30.53
2023-02-04T22:03:02.280Z,27.03
2023-02-04T22:05:30.264Z,28.63
2023-02-04T22:07:59.810Z,28.10
2023-02-04T22:10:28.054Z,26.00
2023-02-04T22:12:56.030Z,36.27
2023-02-04T22:15:24.565Z,29.73
2023-02-04T22:17:54.037Z,29.40
2023-02-04T22:20:25.390Z,28.03
2023-02-04T22:22:53.880Z,26.90
2023-02-04T22:25:22.678Z,26.67
2023-02-04T22:27:50.903Z,31.00
2023-02-04T22:30:19.767Z,27.40
2023-02-04T22:32:47.737Z,29.83
2023-02-04T22:35:16.174Z,33.17
2023-02-04T22:37:45.442Z,25.93
2023-02-04T22:40:13.917Z,26.70
2023-02-04T22:42:42.003Z,30.90
2023-02-04T22:45:11.157Z,24.73
2023-02-04T22:47:39.270Z,43.33
2023-02-04T22:50:07.971Z,24.60
2023-02-04T22:52:35.853Z,23.03
2023-02-04T22:55:05.833Z,28.30
2023-02-04T22:57:33.765Z,24.30
2023-02-04T23:00:01.748Z,25.63
2023-02-04T23:02:29.669Z,31.27
2023-02-04T23:04:57.534Z,30.83
2023-02-04T23:07:25.457Z,24.97
2023-02-04T23:09:53.414Z,31.17
2023-02-04T23:12:22.608Z,30.03
2023-02-04T23:14:51.031Z,32.53
2023-02-04T23:17:19.885Z,26.50
2023-02-04T23:19:47.932Z,25.93
2023-02-04T23:22:16.985Z,34.37
2023-02-04T23:24:45.186Z,43.87
2023-02-04T23:27:13.664Z,30.87
2023-02-04T23:29:43.263Z,27.30
2023-02-04T23:32:11.381Z,31.60
2023-02-04T23:34:39.391Z,43.40
2023-02-04T23:37:07.387Z,45.13
2023-02-04T23:39:35.323Z,32.23
2023-02-04T23:42:03.634Z,47.87
2023-02-04T23:44:31.597Z,46.90
2023-02-04T23:47:00.819Z,37.70
2023-02-04T23:49:28.678Z,35.73
2023-02-04T23:51:56.604Z,50.90
2023-02-04T23:54:24.553Z,49.27
2023-02-04T23:56:53.250Z,45.87
2023-02-04T23:59:21.216Z,41.57
